createdAt,value
2022-09-17T00:00:00.000Z,7.49
2022-09-17T00:15:00.000Z,7.81
2022-09-17T00:30:00.000Z,7.44
2022-09-17T00:45:00.000Z,7.34
2022-09-17T01:00:00.000Z,7.33
2022-09-17T01:15:00.000Z,8.2
2022-09-17T01:30:00.000Z,8.42
2022-09-17T01:45:00.000Z,7.69
2022-09-17T02:00:00.000Z,6.8
2022-09-17T02:15:00.000Z,7.16
2022-09-17T02:30:00.000Z,7.17
2022-09-17T02:45:00.000Z,7.06
2022-09-17T03:00:00.000Z,7.22
2022-09-17T03:15:00.000Z,7.36
2022-09-17T03:30:00.000Z,7.24
2022-09-17T03:45:00.000Z,5.28
2022-09-17T04:00:00.000Z,4.18
2022-09-17T04:15:00.000Z,4.4
2022-09-17T04:30:00.000Z,4.52
2022-09-17T04:45:00.000Z,5.33
2022-09-17T05:00:00.000Z,5.66
2022-09-17T05:15:00.000Z,5.13
2022-09-17T05:30:00.000Z,4.54
2022-09-17T05:45:00.000Z,6.18
2022-09-17T06:00:00.000Z,6.73
2022-09-17T06:15:00.000Z,4.68
2022-09-17T06:30:00.000Z,4.44
2022-09-17T06:45:00.000Z,6.65
2022-09-17T07:00:00.000Z,5.96
2022-09-17T07:15:00.000Z,4.34
2022-09-17T07:30:00.000Z,4.27
2022-09-17T07:45:00.000Z,4.46
2022-09-17T08:00:00.000Z,4.78
2022-09-17T08:15:00.000Z,3.62
2022-09-17T08:30:00.000Z,2.61
2022-09-17T08:45:00.000Z,3.91
2022-09-17T09:00:00.000Z,3.98
2022-09-17T09:15:00.000Z,3.36
2022-09-17T09:30:00.000Z,3.25
2022-09-17T09:45:00.000Z,4.25
2022-09-17T10:00:00.000Z,3.18
2022-09-17T10:15:00.000Z,3.2
2022-09-17T10:30:00.000Z,2.21
2022-09-17T10:45:00.000Z,3.06
2022-09-17T11:00:00.000Z,2.32
2022-09-17T11:15:00.000Z,3.21
2022-09-17T11:30:00.000Z,5
2022-09-17T11:45:00.000Z,3.84
2022-09-17T12:00:00.000Z,3.24
2022-09-17T12:15:00.000Z,1.82
2022-09-17T12:30:00.000Z,1.91
2022-09-17T12:45:00.000Z,3.71
2022-09-17T13:00:00.000Z,3.88
2022-09-17T13:15:00.000Z,3.82
2022-09-17T13:30:00.000Z,4.19
2022-09-17T13:45:00.000Z,2.75
2022-09-17T14:00:00.000Z,2.79
2022-09-17T14:15:00.000Z,2.59
2022-09-17T14:30:00.000Z,5.32
2022-09-17T14:45:00.000Z,6.82
2022-09-17T15:00:00.000Z,5.16
2022-09-17T15:15:00.000Z,5.88
2022-09-17T15:30:00.000Z,4.52
2022-09-17T15:45:00.000Z,4.27
2022-09-17T16:00:00.000Z,4.38
2022-09-17T16:15:00.000Z,2.78
2022-09-17T16:30:00.000Z,1.66
2022-09-17T16:45:00.000Z,3.18
2022-09-17T17:00:00.000Z,1.44
2022-09-17T17:15:00.000Z,2.47
2022-09-17T17:30:00.000Z,4.15
2022-09-17T17:45:00.000Z,4.2
2022-09-17T18:00:00.000Z,4.34
2022-09-17T18:15:00.000Z,3.26
2022-09-17T18:30:00.000Z,2.07
2022-09-17T18:45:00.000Z,2.4
2022-09-17T19:00:00.000Z,2.18
2022-09-17T19:15:00.000Z,2.6
2022-09-17T19:30:00.000Z,3.47
2022-09-17T19:45:00.000Z,2.13
2022-09-17T20:00:00.000Z,4.12
2022-09-17T20:15:00.000Z,2.87
2022-09-17T20:30:00.000Z,1.67
2022-09-17T20:45:00.000Z,1.4
2022-09-17T21:00:00.000Z,3.06
2022-09-17T21:15:00.000Z,3.27
2022-09-17T21:30:00.000Z,2.51
2022-09-17T21:45:00.000Z,2.73
2022-09-17T22:00:00.000Z,2.4
2022-09-17T22:15:00.000Z,2.69
2022-09-17T22:30:00.000Z,1.66
2022-09-17T22:45:00.000Z,2.05
2022-09-17T23:00:00.000Z,1.18
2022-09-17T23:15:00.000Z,1.18
2022-09-17T23:30:00.000Z,1.2
2022-09-17T23:45:00.000Z,1.18
